sensor_id;sensor_type;location;lat;lon;timestamp;P1;durP1;ratioP1;P2;durP2;ratioP2
24301;SDS011;12421;49.732;20.078;2023-01-28T00:02:27;32.60;;;18.80;;
24301;SDS011;12421;49.732;20.078;2023-01-28T00:12:37;28.90;;;17.00;;
24301;SDS011;12421;49.732;20.078;2023-01-28T00:22:50;30.10;;;17.40;;
24301;SDS011;12421;49.732;20.078;2023-01-28T00:33:05;32.80;;;17.70;;
24301;SDS011;12421;49.732;20.078;2023-01-28T00:43:24;30.10;;;17.80;;
24301;SDS011;12421;49.732;20.078;2023-01-28T00:53:41;33.40;;;19.00;;
24301;SDS011;12421;49.732;20.078;2023-01-28T01:04:06;33.10;;;18.40;;
24301;SDS011;12421;49.732;20.078;2023-01-28T01:14:30;29.50;;;17.80;;
24301;SDS011;12421;49.732;20.078;2023-01-28T01:24:43;34.90;;;19.50;;
24301;SDS011;12421;49.732;20.078;2023-01-28T01:35:57;32.10;;;18.00;;
24301;SDS011;12421;49.732;20.078;2023-01-28T01:46:05;32.80;;;18.90;;
24301;SDS011;12421;49.732;20.078;2023-01-28T01:56:44;28.30;;;17.40;;
24301;SDS011;12421;49.732;20.078;2023-01-28T02:07:07;34.10;;;19.50;;
24301;SDS011;12421;49.732;20.078;2023-01-28T02:18:04;31.80;;;16.90;;
24301;SDS011;12421;49.732;20.078;2023-01-28T02:39:37;34.30;;;20.00;;
24301;SDS011;12421;49.732;20.078;2023-01-28T02:49:52;34.70;;;20.50;;
24301;SDS011;12421;49.732;20.078;2023-01-28T03:10:17;35.60;;;20.30;;
24301;SDS011;12421;49.732;20.078;2023-01-28T03:20:24;35.50;;;19.70;;
24301;SDS011;12421;49.732;20.078;2023-01-28T03:30:56;31.30;;;17.80;;
24301;SDS011;12421;49.732;20.078;2023-01-28T03:41:27;32.10;;;18.30;;
24301;SDS011;12421;49.732;20.078;2023-01-28T03:51:33;35.00;;;19.30;;
24301;SDS011;12421;49.732;20.078;2023-01-28T04:01:37;33.00;;;19.40;;
24301;SDS011;12421;49.732;20.078;2023-01-28T04:11:44;32.30;;;18.00;;
24301;SDS011;12421;49.732;20.078;2023-01-28T04:21:53;30.70;;;17.50;;
24301;SDS011;12421;49.732;20.078;2023-01-28T04:32:02;30.00;;;16.90;;
24301;SDS011;12421;49.732;20.078;2023-01-28T04:42:38;28.50;;;17.40;;
24301;SDS011;12421;49.732;20.078;2023-01-28T04:53:12;28.10;;;16.10;;
24301;SDS011;12421;49.732;20.078;2023-01-28T05:03:28;32.50;;;16.20;;
24301;SDS011;12421;49.732;20.078;2023-01-28T05:13:58;29.50;;;16.40;;
24301;SDS011;12421;49.732;20.078;2023-01-28T05:24:20;31.10;;;16.90;;
24301;SDS011;12421;49.732;20.078;2023-01-28T05:44:58;25.20;;;15.10;;
24301;SDS011;12421;49.732;20.078;2023-01-28T05:55:38;28.60;;;15.20;;
24301;SDS011;12421;49.732;20.078;2023-01-28T06:05:44;26.00;;;15.10;;
24301;SDS011;12421;49.732;20.078;2023-01-28T06:15:56;28.80;;;16.30;;
24301;SDS011;12421;49.732;20.078;2023-01-28T06:26:14;26.70;;;15.70;;
24301;SDS011;12421;49.732;20.078;2023-01-28T06:36:21;24.20;;;15.30;;
24301;SDS011;12421;49.732;20.078;2023-01-28T06:46:25;25.40;;;14.50;;
24301;SDS011;12421;49.732;20.078;2023-01-28T06:56:29;25.30;;;14.90;;
24301;SDS011;12421;49.732;20.078;2023-01-28T07:06:33;23.70;;;15.00;;
24301;SDS011;12421;49.732;20.078;2023-01-28T07:16:37;23.80;;;13.90;;
24301;SDS011;12421;49.732;20.078;2023-01-28T07:26:42;23.50;;;13.10;;
24301;SDS011;12421;49.732;20.078;2023-01-28T07:36:56;24.50;;;15.90;;
24301;SDS011;12421;49.732;20.078;2023-01-28T07:58:25;22.60;;;13.00;;
24301;SDS011;12421;49.732;20.078;2023-01-28T08:08:50;23.20;;;13.70;;
24301;SDS011;12421;49.732;20.078;2023-01-28T08:29:13;19.30;;;11.70;;
24301;SDS011;12421;49.732;20.078;2023-01-28T08:39:38;25.00;;;13.00;;
24301;SDS011;12421;49.732;20.078;2023-01-28T08:50:05;25.70;;;14.80;;
24301;SDS011;12421;49.732;20.078;2023-01-28T09:00:19;21.40;;;12.90;;
24301;SDS011;12421;49.732;20.078;2023-01-28T09:10:37;24.10;;;13.70;;
24301;SDS011;12421;49.732;20.078;2023-01-28T09:20:45;21.50;;;11.90;;
24301;SDS011;12421;49.732;20.078;2023-01-28T09:30:50;22.60;;;13.50;;
24301;SDS011;12421;49.732;20.078;2023-01-28T09:40:54;15.70;;;10.80;;
24301;SDS011;12421;49.732;20.078;2023-01-28T10:02:18;22.50;;;13.40;;
24301;SDS011;12421;49.732;20.078;2023-01-28T10:23:38;23.30;;;13.40;;
24301;SDS011;12421;49.732;20.078;2023-01-28T10:33:58;24.90;;;14.90;;
24301;SDS011;12421;49.732;20.078;2023-01-28T10:44:14;23.10;;;14.40;;
24301;SDS011;12421;49.732;20.078;2023-01-28T10:54:30;29.00;;;17.10;;
24301;SDS011;12421;49.732;20.078;2023-01-28T11:04:34;22.40;;;13.60;;
24301;SDS011;12421;49.732;20.078;2023-01-28T11:14:48;24.00;;;13.30;;
24301;SDS011;12421;49.732;20.078;2023-01-28T11:24:58;27.70;;;15.50;;
24301;SDS011;12421;49.732;20.078;2023-01-28T11:45:11;31.50;;;17.50;;
24301;SDS011;12421;49.732;20.078;2023-01-28T12:05:41;36.70;;;19.40;;
24301;SDS011;12421;49.732;20.078;2023-01-28T12:36:18;21.10;;;14.30;;
24301;SDS011;12421;49.732;20.078;2023-01-28T12:46:31;21.20;;;13.70;;
24301;SDS011;12421;49.732;20.078;2023-01-28T12:57:18;42.60;;;27.80;;
24301;SDS011;12421;49.732;20.078;2023-01-28T13:18:03;31.30;;;20.30;;
24301;SDS011;12421;49.732;20.078;2023-01-28T13:28:21;35.30;;;20.10;;
24301;SDS011;12421;49.732;20.078;2023-01-28T13:38:59;33.70;;;20.10;;
24301;SDS011;12421;49.732;20.078;2023-01-28T13:49:09;38.00;;;19.30;;
24301;SDS011;12421;49.732;20.078;2023-01-28T13:59:36;33.00;;;20.50;;
24301;SDS011;12421;49.732;20.078;2023-01-28T14:41:02;32.40;;;19.60;;
24301;SDS011;12421;49.732;20.078;2023-01-28T15:01:33;32.90;;;19.90;;
24301;SDS011;12421;49.732;20.078;2023-01-28T15:11:38;34.00;;;20.90;;
24301;SDS011;12421;49.732;20.078;2023-01-28T15:21:55;33.20;;;19.50;;
24301;SDS011;12421;49.732;20.078;2023-01-28T15:32:02;35.90;;;22.80;;
24301;SDS011;12421;49.732;20.078;2023-01-28T15:42:14;38.10;;;23.90;;
24301;SDS011;12421;49.732;20.078;2023-01-28T15:52:31;31.30;;;19.40;;
24301;SDS011;12421;49.732;20.078;2023-01-28T16:03:05;30.20;;;20.60;;
24301;SDS011;12421;49.732;20.078;2023-01-28T16:13:22;26.50;;;18.20;;
24301;SDS011;12421;49.732;20.078;2023-01-28T16:23:30;39.90;;;23.10;;
24301;SDS011;12421;49.732;20.078;2023-01-28T16:33:38;41.60;;;23.70;;
24301;SDS011;12421;49.732;20.078;2023-01-28T16:43:46;40.00;;;22.20;;
24301;SDS011;12421;49.732;20.078;2023-01-28T17:14:25;38.30;;;20.30;;
24301;SDS011;12421;49.732;20.078;2023-01-28T17:24:29;39.90;;;24.80;;
24301;SDS011;12421;49.732;20.078;2023-01-28T17:34:34;41.70;;;25.90;;
24301;SDS011;12421;49.732;20.078;2023-01-28T17:44:39;40.20;;;24.20;;
24301;SDS011;12421;49.732;20.078;2023-01-28T17:54:48;38.20;;;20.80;;
24301;SDS011;12421;49.732;20.078;2023-01-28T18:04:56;45.60;;;24.20;;
24301;SDS011;12421;49.732;20.078;2023-01-28T18:15:01;42.90;;;24.50;;
24301;SDS011;12421;49.732;20.078;2023-01-28T18:25:05;43.20;;;24.90;;
24301;SDS011;12421;49.732;20.078;2023-01-28T18:35:18;42.60;;;24.40;;
24301;SDS011;12421;49.732;20.078;2023-01-28T18:45:25;43.70;;;27.90;;
24301;SDS011;12421;49.732;20.078;2023-01-28T18:55:36;51.70;;;29.80;;
24301;SDS011;12421;49.732;20.078;2023-01-28T19:05:44;48.70;;;28.60;;
24301;SDS011;12421;49.732;20.078;2023-01-28T19:15:51;51.10;;;30.10;;
24301;SDS011;12421;49.732;20.078;2023-01-28T19:25:55;54.30;;;31.90;;
24301;SDS011;12421;49.732;20.078;2023-01-28T19:36:11;55.50;;;30.40;;
24301;SDS011;12421;49.732;20.078;2023-01-28T19:56:30;46.40;;;25.90;;
24301;SDS011;12421;49.732;20.078;2023-01-28T20:06:46;54.30;;;31.70;;
24301;SDS011;12421;49.732;20.078;2023-01-28T20:16:56;54.50;;;29.90;;
24301;SDS011;12421;49.732;20.078;2023-01-28T20:27:06;55.80;;;32.10;;
24301;SDS011;12421;49.732;20.078;2023-01-28T20:47:35;63.70;;;35.50;;
24301;SDS011;12421;49.732;20.078;2023-01-28T20:57:40;52.10;;;29.60;;
24301;SDS011;12421;49.732;20.078;2023-01-28T21:07:58;50.70;;;30.40;;
24301;SDS011;12421;49.732;20.078;2023-01-28T21:18:09;49.80;;;28.70;;
24301;SDS011;12421;49.732;20.078;2023-01-28T21:28:16;47.00;;;27.40;;
24301;SDS011;12421;49.732;20.078;2023-01-28T21:38:26;46.60;;;26.70;;
24301;SDS011;12421;49.732;20.078;2023-01-28T21:48:30;48.20;;;28.10;;
24301;SDS011;12421;49.732;20.078;2023-01-28T21:58:35;46.00;;;28.00;;
24301;SDS011;12421;49.732;20.078;2023-01-28T22:09:01;62.70;;;30.80;;
24301;SDS011;12421;49.732;20.078;2023-01-28T22:19:07;50.30;;;26.80;;
24301;SDS011;12421;49.732;20.078;2023-01-28T22:29:12;52.20;;;28.70;;
24301;SDS011;12421;49.732;20.078;2023-01-28T22:39:17;48.70;;;26.20;;
24301;SDS011;12421;49.732;20.078;2023-01-28T22:49:22;32.90;;;19.70;;
24301;SDS011;12421;49.732;20.078;2023-01-28T22:59:38;21.90;;;12.30;;
24301;SDS011;12421;49.732;20.078;2023-01-28T23:09:48;37.90;;;19.30;;
24301;SDS011;12421;49.732;20.078;2023-01-28T23:19:52;36.10;;;20.30;;
24301;SDS011;12421;49.732;20.078;2023-01-28T23:30:15;18.20;;;10.20;;
24301;SDS011;12421;49.732;20.078;2023-01-28T23:40:21;14.80;;;8.90;;
24301;SDS011;12421;49.732;20.078;2023-01-28T23:50:26;24.80;;;14.70;;
